sensor_id;sensor_type;location;lat;lon;timestamp;pressure;altitude;pressure_sealevel;temperature;humidity
61740;BME280;47645;45.288;12.038;2023-12-20T00:02:34;1016.7114243406584;;;2.6498046875;100
61740;BME280;47645;45.288;12.038;2023-12-20T00:12:34;1016.5045687645323;;;2.59375;100
61740;BME280;47645;45.288;12.038;2023-12-20T00:22:34;1016.4106309937681;;;2.58359375;100
61740;BME280;47645;45.288;12.038;2023-12-20T00:32:35;1016.2063163693194;;;2.5326171875;100
61740;BME280;47645;45.288;12.038;2023-12-20T00:42:36;1016.0542635664609;;;2.4255859375;100
61740;BME280;47645;45.288;12.038;2023-12-20T00:52:35;1015.8948145508443;;;2.4306640625;100
61740;BME280;47645;45.288;12.038;2023-12-20T01:02:36;1015.8652272517724;;;2.323828125;100
61740;BME280;47645;45.288;12.038;2023-12-20T01:12:36;1015.7843579773075;;;2.226953125;100
61740;BME280;47645;45.288;12.038;2023-12-20T01:22:37;1015.6917274801334;;;2.2115234375;100
61740;BME280;47645;45.288;12.038;2023-12-20T01:32:37;1015.7044242317338;;;2.1912109375;100
61740;BME280;47645;45.288;12.038;2023-12-20T01:42:37;1015.5779471679643;;;2.1759765625;100
61740;BME280;47645;45.288;12.038;2023-12-20T01:52:37;1015.4157572037352;;;2.0587890625;100
61740;BME280;47645;45.288;12.038;2023-12-20T02:02:39;1015.2167588284766;;;2.043359375;100
61740;BME280;47645;45.288;12.038;2023-12-20T02:12:38;1015.156742133937;;;1.885546875;100
61740;BME280;47645;45.288;12.038;2023-12-20T02:22:39;1015.0008779346936;;;1.916015625;100
61740;BME280;47645;45.288;12.038;2023-12-20T02:32:39;1014.9606138621537;;;1.9416015625;100
61740;BME280;47645;45.288;12.038;2023-12-20T02:42:39;1014.7854578893276;;;1.9568359375;100
61740;BME280;47645;45.288;12.038;2023-12-20T02:52:39;1014.6269634069661;;;1.885546875;100
61740;BME280;47645;45.288;12.038;2023-12-20T03:02:40;1014.6406130094816;;;1.80390625;100
61740;BME280;47645;45.288;12.038;2023-12-20T03:12:41;1014.5624493735081;;;1.8345703125;100
61740;BME280;47645;45.288;12.038;2023-12-20T03:22:41;1014.5973799163777;;;1.671484375;100
61740;BME280;47645;45.288;12.038;2023-12-20T03:32:41;1014.5696408028747;;;1.6205078125;100
61740;BME280;47645;45.288;12.038;2023-12-20T03:42:41;1014.5269111438713;;;1.6765625;100
61740;BME280;47645;45.288;12.038;2023-12-20T03:52:42;1014.3319533918557;;;1.6306640625;100
61740;BME280;47645;45.288;12.038;2023-12-20T04:02:42;1014.0341484985835;;;1.6;100
61740;BME280;47645;45.288;12.038;2023-12-20T04:12:42;1013.9500927480714;;;1.487890625;100
61740;BME280;47645;45.288;12.038;2023-12-20T04:22:43;1013.8104607820718;;;1.4625;100
61740;BME280;47645;45.288;12.038;2023-12-20T04:32:43;1013.7393954628271;;;1.360546875;100
61740;BME280;47645;45.288;12.038;2023-12-20T04:42:44;1013.5747275175927;;;1.4421875;100
61740;BME280;47645;45.288;12.038;2023-12-20T04:52:44;1013.6476794434599;;;1.360546875;100
61740;BME280;47645;45.288;12.038;2023-12-20T05:02:44;1013.5238504472773;;;1.457421875;100
61740;BME280;47645;45.288;12.038;2023-12-20T05:12:45;1013.6490745889195;;;1.4625;100
61740;BME280;47645;45.288;12.038;2023-12-20T05:22:45;1013.606201218057;;;1.3861328125;100
61740;BME280;47645;45.288;12.038;2023-12-20T05:32:45;1013.7844751255817;;;1.467578125;100
61740;BME280;47645;45.288;12.038;2023-12-20T05:42:45;1013.6837601620567;;;1.1923828125;100
61740;BME280;47645;45.288;12.038;2023-12-20T05:52:46;1013.6071427809054;;;1.33515625;100
61740;BME280;47645;45.288;12.038;2023-12-20T06:02:46;1013.3628752272348;;;1.6357421875;100
61740;BME280;47645;45.288;12.038;2023-12-20T06:12:50;1013.4969744936301;;;1.5796875;100
61740;BME280;47645;45.288;12.038;2023-12-20T06:22:47;1013.2367689333881;;;1.80390625;100
61740;BME280;47645;45.288;12.038;2023-12-20T06:32:48;1013.3730667400774;;;1.5083984375;100
61740;BME280;47645;45.288;12.038;2023-12-20T06:42:48;1013.4283726127879;;;1.4318359375;100
61740;BME280;47645;45.288;12.038;2023-12-20T06:52:48;1013.3774814341781;;;1.6154296875;100
61740;BME280;47645;45.288;12.038;2023-12-20T07:02:48;1013.2287040687056;;;1.8447265625;100
61740;BME280;47645;45.288;12.038;2023-12-20T07:12:49;1013.2836802458344;;;2.0638671875;100
61740;BME280;47645;45.288;12.038;2023-12-20T07:22:49;1013.2712682389578;;;2.2830078125;100
61740;BME280;47645;45.288;12.038;2023-12-20T07:32:49;1013.4236423267498;;;2.23203125;100
61740;BME280;47645;45.288;12.038;2023-12-20T07:42:50;1013.2061179310756;;;2.364453125;100
61740;BME280;47645;45.288;12.038;2023-12-20T07:52:50;1013.2968685788989;;;2.6193359375;100
61740;BME280;47645;45.288;12.038;2023-12-20T08:02:50;1013.4654512464415;;;3.0779296875;100
61740;BME280;47645;45.288;12.038;2023-12-20T08:12:51;1013.7233952200011;;;3.0779296875;100
61740;BME280;47645;45.288;12.038;2023-12-20T08:22:51;1013.7388694475308;;;2.77734375;100
61740;BME280;47645;45.288;12.038;2023-12-20T08:32:51;1013.7855117093925;;;3.2818359375;100
61740;BME280;47645;45.288;12.038;2023-12-20T08:42:52;1013.8804675708693;;;3.4142578125;100
61740;BME280;47645;45.288;12.038;2023-12-20T08:52:52;1013.8364408418811;;;3.77109375;100
61740;BME280;47645;45.288;12.038;2023-12-20T09:02:52;1013.5109329928149;;;4.3978515625;100
61740;BME280;47645;45.288;12.038;2023-12-20T09:12:56;1013.4882576858045;;;4.775;100
61740;BME280;47645;45.288;12.038;2023-12-20T09:22:53;1013.5351382571907;;;4.9380859375;100
61740;BME280;47645;45.288;12.038;2023-12-20T09:32:53;1013.5531827432543;;;5.3203125;100
61740;BME280;47645;45.288;12.038;2023-12-20T09:42:57;1013.5136053638649;;;5.6771484375;100
61740;BME280;47645;45.288;12.038;2023-12-20T09:52:57;1013.4248816366966;;;6.0033203125;100
61740;BME280;47645;45.288;12.038;2023-12-20T10:02:57;1013.3169726498752;;;5.7177734375;100
61740;BME280;47645;45.288;12.038;2023-12-20T10:13:04;1013.101148245921;;;5.850390625;100
61740;BME280;47645;45.288;12.038;2023-12-20T10:22:56;1012.8604210293325;;;6.395703125;100
61740;BME280;47645;45.288;12.038;2023-12-20T10:32:56;1012.7742373787546;;;6.7982421875;100
61740;BME280;47645;45.288;12.038;2023-12-20T10:42:58;1012.5030134424122;;;6.9818359375;100
61740;BME280;47645;45.288;12.038;2023-12-20T10:52:58;1012.2323933707323;;;7.2314453125;100
61740;BME280;47645;45.288;12.038;2023-12-20T11:03:00;1012.3631840205968;;;7.4150390625;100
61740;BME280;47645;45.288;12.038;2023-12-20T11:13:10;1012.4865536742795;;;6.8849609375;100
61740;BME280;47645;45.288;12.038;2023-12-20T11:22:59;1012.4075388552096;;;6.7677734375;100
61740;BME280;47645;45.288;12.038;2023-12-20T11:32:59;1012.3938715758048;;;7.053125;100
61740;BME280;47645;45.288;12.038;2023-12-20T11:43:00;1012.3626845717909;;;6.6453125;100
61740;BME280;47645;45.288;12.038;2023-12-20T11:53:00;1012.1765866916047;;;7.466015625;100
61740;BME280;47645;45.288;12.038;2023-12-20T12:03:02;1012.2549033887789;;;7.1142578125;100
61740;BME280;47645;45.288;12.038;2023-12-20T12:13:01;1012.2495134903335;;;6.9359375;100
61740;BME280;47645;45.288;12.038;2023-12-20T12:23:03;1012.3457145932797;;;6.737109375;100
61740;BME280;47645;45.288;12.038;2023-12-20T12:33:03;1012.0672985542762;;;6.82890625;100
61740;BME280;47645;45.288;12.038;2023-12-20T12:43:03;1011.7259001378065;;;6.7880859375;100
61740;BME280;47645;45.288;12.038;2023-12-20T12:53:03;1011.5288463822891;;;7.4404296875;100
61740;BME280;47645;45.288;12.038;2023-12-20T13:03:04;1011.6017798480733;;;7.37421875;100
61740;BME280;47645;45.288;12.038;2023-12-20T13:13:05;1011.6275015125664;;;7.175390625;100
61740;BME280;47645;45.288;12.038;2023-12-20T13:23:05;1011.5065687615769;;;6.961328125;100
61740;BME280;47645;45.288;12.038;2023-12-20T13:33:06;1011.5882940510816;;;7.1041015625;100
61740;BME280;47645;45.288;12.038;2023-12-20T13:43:06;1011.5635520477124;;;6.7677734375;100
61740;BME280;47645;45.288;12.038;2023-12-20T13:53:07;1011.4785568344064;;;6.8697265625;100
61740;BME280;47645;45.288;12.038;2023-12-20T14:03:07;1011.4046274294717;;;6.7880859375;100
61740;BME280;47645;45.288;12.038;2023-12-20T14:13:07;1011.5156951692787;;;6.9818359375;100
61740;BME280;47645;45.288;12.038;2023-12-20T14:23:08;1011.5660802504358;;;6.84921875;100
61740;BME280;47645;45.288;12.038;2023-12-20T14:33:08;1011.7890753000502;;;6.5892578125;100
61740;BME280;47645;45.288;12.038;2023-12-20T14:43:09;1011.6485959190109;;;6.706640625;100
61740;BME280;47645;45.288;12.038;2023-12-20T14:53:09;1011.7393180123211;;;7.0837890625;100
61740;BME280;47645;45.288;12.038;2023-12-20T15:03:09;1011.7103551362602;;;7.2875;100
61740;BME280;47645;45.288;12.038;2023-12-20T15:13:10;1011.6321977885805;;;7.175390625;100
61740;BME280;47645;45.288;12.038;2023-12-20T15:23:13;1011.6756408219012;;;7.175390625;100
61740;BME280;47645;45.288;12.038;2023-12-20T15:33:11;1011.7855570520479;;;7.0328125;100
61740;BME280;47645;45.288;12.038;2023-12-20T15:43:11;1011.5306631204314;;;6.8798828125;100
61740;BME280;47645;45.288;12.038;2023-12-20T15:53:12;1011.66006398941;;;6.5791015625;100
61740;BME280;47645;45.288;12.038;2023-12-20T16:03:13;1011.8760368920041;;;6.416015625;100
61740;BME280;47645;45.288;12.038;2023-12-20T16:13:13;1011.9610016569085;;;6.0083984375;100
61740;BME280;47645;45.288;12.038;2023-12-20T16:23:14;1012.0318070963807;;;6.054296875;100
61740;BME280;47645;45.288;12.038;2023-12-20T16:33:14;1012.0289257960171;;;5.7994140625;100
61740;BME280;47645;45.288;12.038;2023-12-20T16:43:16;1012.2005704693881;;;5.5751953125;100
61740;BME280;47645;45.288;12.038;2023-12-20T16:53:16;1012.1230894929753;;;5.40703125;100
61740;BME280;47645;45.288;12.038;2023-12-20T17:03:16;1012.1554444709619;;;5.40703125;100
61740;BME280;47645;45.288;12.038;2023-12-20T17:13:16;1012.1539891613378;;;5.2845703125;100
61740;BME280;47645;45.288;12.038;2023-12-20T17:23:17;1012.3544321697641;;;5.28984375;100
61740;BME280;47645;45.288;12.038;2023-12-20T17:33:17;1012.4928259758169;;;5.3203125;100
61740;BME280;47645;45.288;12.038;2023-12-20T17:43:17;1012.6909528893907;;;5.2439453125;100
61740;BME280;47645;45.288;12.038;2023-12-20T17:53:18;1012.86549234382;;;5.09609375;100
61740;BME280;47645;45.288;12.038;2023-12-20T18:03:18;1012.9013853800886;;;5.1724609375;100
61740;BME280;47645;45.288;12.038;2023-12-20T18:13:19;1012.903451042705;;;5.315234375;100
61740;BME280;47645;45.288;12.038;2023-12-20T18:23:20;1012.8188193972786;;;5.4833984375;100
61740;BME280;47645;45.288;12.038;2023-12-20T18:33:20;1012.8687006248089;;;5.3662109375;100
61740;BME280;47645;45.288;12.038;2023-12-20T18:43:22;1012.8312361705928;;;5.401953125;100
61740;BME280;47645;45.288;12.038;2023-12-20T18:53:22;1012.7869013446481;;;5.2744140625;100
61740;BME280;47645;45.288;12.038;2023-12-20T19:03:22;1012.8071017440924;;;5.203125;100
61740;BME280;47645;45.288;12.038;2023-12-20T19:13:22;1012.8030533389334;;;5.2693359375;100
61740;BME280;47645;45.288;12.038;2023-12-20T19:23:22;1012.8405671791902;;;5.3408203125;100
61740;BME280;47645;45.288;12.038;2023-12-20T19:33:23;1012.7200730692034;;;5.5140625;100
61740;BME280;47645;45.288;12.038;2023-12-20T19:43:24;1012.9887708225177;;;5.432421875;100
61740;BME280;47645;45.288;12.038;2023-12-20T19:53:26;1013.1186150066018;;;5.5599609375;100
61740;BME280;47645;45.288;12.038;2023-12-20T20:03:24;1013.3334836215422;;;5.8298828125;100
61740;BME280;47645;45.288;12.038;2023-12-20T20:13:24;1013.1396350945208;;;5.860546875;100
61740;BME280;47645;45.288;12.038;2023-12-20T20:23:25;1013.3020870900934;;;6.0185546875;100
61740;BME280;47645;45.288;12.038;2023-12-20T20:33:26;1013.1833607609608;;;6.084765625;100
61740;BME280;47645;45.288;12.038;2023-12-20T20:43:26;1013.162750306494;;;6.0236328125;100
61740;BME280;47645;45.288;12.038;2023-12-20T20:53:26;1013.2879708284834;;;5.508984375;100
61740;BME280;47645;45.288;12.038;2023-12-20T21:03:27;1013.4234139787166;;;5.656640625;100
61740;BME280;47645;45.288;12.038;2023-12-20T21:13:27;1013.6170788735113;;;5.52421875;100
61740;BME280;47645;45.288;12.038;2023-12-20T21:23:28;1013.6588022895876;;;5.4986328125;100
61740;BME280;47645;45.288;12.038;2023-12-20T21:33:28;1013.68143408572;;;5.3916015625;100
61740;BME280;47645;45.288;12.038;2023-12-20T21:43:29;1013.4276000977386;;;5.54453125;100
61740;BME280;47645;45.288;12.038;2023-12-20T21:53:29;1013.3498451669408;;;5.31015625;100
61740;BME280;47645;45.288;12.038;2023-12-20T22:03:30;1013.2574504381585;;;5.2490234375;100
61740;BME280;47645;45.288;12.038;2023-12-20T22:13:31;1013.1196436227111;;;5.0197265625;100
61740;BME280;47645;45.288;12.038;2023-12-20T22:23:31;1013.0849936617054;;;5.0654296875;100
61740;BME280;47645;45.288;12.038;2023-12-20T22:33:31;1012.980015392234;;;4.96875;100
61740;BME280;47645;45.288;12.038;2023-12-20T22:43:31;1013.0364714089748;;;5.101171875;100
61740;BME280;47645;45.288;12.038;2023-12-20T22:53:32;1013.0098443125482;;;4.4896484375;100
61740;BME280;47645;45.288;12.038;2023-12-20T23:03:33;1012.9582807209076;;;4.3876953125;100
61740;BME280;47645;45.288;12.038;2023-12-20T23:13:33;1012.7537635748137;;;4.4947265625;100
61740;BME280;47645;45.288;12.038;2023-12-20T23:23:33;1012.5832224862395;;;4.652734375;100
61740;BME280;47645;45.288;12.038;2023-12-20T23:33:34;1012.620810226656;;;4.6119140625;100
61740;BME280;47645;45.288;12.038;2023-12-20T23:43:34;1012.78875210924;;;4.7189453125;100
61740;BME280;47645;45.288;12.038;2023-12-20T23:53:35;1012.718395899435;;;4.673046875;100
